Time;durP1;ratioP1;P1;durP2;ratioP2;P2;SDS_P1;SDS_P2;PMS_P1;PMS_P2;Temp;Humidity;BMP_temperature;BMP_pressure;BME280_temperature;BME280_humidity;BME280_pressure;Samples;Min_cycle;Max_cycle;Signal;HPM_P1;HPM_P2
2022/01/08 00:01:53;;;;;;;;;;;20.00;37.20;;;;;;5075328;28;19948;-59
2022/01/08 00:04:19;;;;;;;;;;;20.00;37.20;;;;;;5075183;28;19909;-59
2022/01/08 00:06:44;;;;;;;;;;;20.00;37.20;;;;;;5075366;28;19908;-58
2022/01/08 00:09:09;;;;;;;;;;;19.90;37.20;;;;;;5075074;28;20396;-59
2022/01/08 00:11:35;;;;;;;;;;;19.90;37.20;;;;;;5075322;28;20541;-58
2022/01/08 00:14:04;;;;;;;;;;;19.90;37.20;;;;;;5075021;28;20382;-59
2022/01/08 00:16:33;;;;;;;;;;;19.90;37.20;;;;;;5074934;28;19917;-59
2022/01/08 00:18:58;;;;;;;;;;;19.90;37.20;;;;;;5075034;28;19908;-59
2022/01/08 00:21:24;;;;;;;;;;;19.80;37.20;;;;;;5075025;28;19947;-59
2022/01/08 00:23:49;;;;;;;;;;;19.80;37.20;;;;;;5074751;28;20042;-59
2022/01/08 00:26:15;;;;;;;;;;;19.80;37.20;;;;;;5074714;28;19908;-57
2022/01/08 00:28:40;;;;;;;;;;;19.80;37.20;;;;;;5074753;28;20360;-58
2022/01/08 00:31:09;;;;;;;;;;;19.80;37.20;;;;;;5074576;28;20335;-58
2022/01/08 00:33:35;;;;;;;;;;;19.80;37.20;;;;;;5074491;28;19917;-58
2022/01/08 00:36:01;;;;;;;;;;;19.80;37.30;;;;;;5074429;28;20399;-58
2022/01/08 00:38:26;;;;;;;;;;;19.80;37.20;;;;;;5074437;28;19955;-58
2022/01/08 00:40:52;;;;;;;;;;;19.80;37.20;;;;;;5074489;28;19915;-59
2022/01/08 00:43:17;;;;;;;;;;;19.80;37.20;;;;;;5073245;28;20425;-59
2022/01/08 00:45:43;;;;;;;;;;;19.80;37.20;;;;;;5074387;28;20313;-58
2022/01/08 00:48:08;;;;;;;;;;;19.70;37.20;;;;;;5074523;28;19909;-59
2022/01/08 00:50:33;;;;;;;;;;;19.70;37.20;;;;;;5074278;28;19913;-59
2022/01/08 00:52:59;;;;;;;;;;;19.70;37.20;;;;;;5074172;28;19920;-58
2022/01/08 00:55:24;;;;;;;;;;;19.70;37.20;;;;;;5074308;28;19958;-59
2022/01/08 00:57:50;;;;;;;;;;;19.70;37.30;;;;;;5073272;28;19908;-59
2022/01/08 01:00:15;;;;;;;;;;;19.70;37.20;;;;;;5074161;28;20379;-57
2022/01/08 01:02:41;;;;;;;;;;;19.70;37.20;;;;;;5074259;28;20382;-59
2022/01/08 01:05:07;;;;;;;;;;;19.70;37.20;;;;;;5074082;28;19908;-59
2022/01/08 01:07:32;;;;;;;;;;;19.60;37.30;;;;;;5073833;28;19908;-59
2022/01/08 01:09:58;;;;;;;;;;;19.70;37.20;;;;;;5073996;28;19909;-59
2022/01/08 01:12:23;;;;;;;;;;;19.70;37.20;;;;;;5073998;28;19970;-58
2022/01/08 01:14:49;;;;;;;;;;;19.60;37.20;;;;;;5072529;28;20328;-59
2022/01/08 01:17:14;;;;;;;;;;;19.60;37.20;;;;;;5074071;28;19916;-59
2022/01/08 01:19:40;;;;;;;;;;;19.70;37.20;;;;;;5073760;28;19961;-59
2022/01/08 01:22:05;;;;;;;;;;;19.60;37.20;;;;;;5073750;28;20380;-59
2022/01/08 01:24:33;;;;;;;;;;;19.60;37.20;;;;;;5073753;28;19908;-59
2022/01/08 01:27:39;;;;;;;;;;;19.60;37.20;;;;;;5073717;28;19908;-59
2022/01/08 01:43:26;;;;;;;;;;;19.50;37.20;;;;;;5073543;28;19962;-59
2022/01/08 01:48:35;;;;;;;;;;;19.50;37.20;;;;;;5073743;28;19915;-59
2022/01/08 01:51:01;;;;;;;;;;;19.50;37.20;;;;;;5073401;28;19987;-59
2022/01/08 01:53:26;;;;;;;;;;;19.50;37.20;;;;;;5073834;28;19919;-59
2022/01/08 01:55:52;;;;;;;;;;;19.50;37.20;;;;;;5073530;28;19908;-58
2022/01/08 01:58:18;;;;;;;;;;;19.50;37.20;;;;;;5073131;28;20415;-59
2022/01/08 02:00:43;;;;;;;;;;;19.50;37.20;;;;;;5073336;28;19912;-59
2022/01/08 02:03:09;;;;;;;;;;;19.50;37.20;;;;;;5073272;28;20375;-58
2022/01/08 02:05:34;;;;;;;;;;;19.50;37.20;;;;;;5055414;28;20421;-58
2022/01/08 02:08:00;;;;;;;;;;;19.50;37.20;;;;;;5074392;28;19958;-59
2022/01/08 02:10:25;;;;;;;;;;;19.50;37.20;;;;;;5077666;28;19953;-58
2022/01/08 02:12:51;;;;;;;;;;;19.50;37.20;;;;;;5077292;28;20280;-59
2022/01/08 02:15:16;;;;;;;;;;;19.50;37.20;;;;;;5077624;28;19935;-58
2022/01/08 02:17:42;;;;;;;;;;;19.50;37.20;;;;;;5077196;28;19995;-59
2022/01/08 02:20:08;;;;;;;;;;;19.50;37.20;;;;;;5077288;28;19909;-59
2022/01/08 02:22:34;;;;;;;;;;;19.40;37.20;;;;;;5077138;28;20392;-58
2022/01/08 02:24:59;;;;;;;;;;;19.50;37.10;;;;;;5077371;28;19909;-59
2022/01/08 02:27:25;;;;;;;;;;;19.40;37.20;;;;;;5077123;28;20344;-59
2022/01/08 02:29:50;;;;;;;;;;;19.40;37.10;;;;;;5077253;28;20372;-59
2022/01/08 02:32:18;;;;;;;;;;;19.40;37.20;;;;;;5077049;28;19995;-59
2022/01/08 02:34:45;;;;;;;;;;;19.40;37.20;;;;;;5076925;28;20023;-59
2022/01/08 02:37:11;;;;;;;;;;;19.40;37.20;;;;;;5076944;28;19931;-59
2022/01/08 02:39:42;;;;;;;;;;;19.40;37.10;;;;;;5076946;28;19909;-58
2022/01/08 02:42:08;;;;;;;;;;;19.40;37.20;;;;;;5076877;28;19914;-58
2022/01/08 02:44:34;;;;;;;;;;;19.40;37.10;;;;;;5058927;28;20368;-58
2022/01/08 02:47:00;;;;;;;;;;;19.40;37.20;;;;;;5076692;28;20014;-58
2022/01/08 02:49:25;;;;;;;;;;;19.40;37.10;;;;;;5076940;28;19916;-59
2022/01/08 02:51:51;;;;;;;;;;;19.30;37.20;;;;;;5076745;28;20264;-59
2022/01/08 02:54:17;;;;;;;;;;;19.40;37.10;;;;;;5076621;28;19920;-59
2022/01/08 02:56:44;;;;;;;;;;;19.40;37.10;;;;;;5076519;28;19909;-59
2022/01/08 02:59:10;;;;;;;;;;;19.40;37.10;;;;;;5076400;28;19920;-58
2022/01/08 03:01:35;;;;;;;;;;;19.30;37.10;;;;;;5076410;28;20287;-60
2022/01/08 03:04:02;;;;;;;;;;;19.30;37.20;;;;;;5076417;28;19909;-59
2022/01/08 03:06:27;;;;;;;;;;;19.30;37.10;;;;;;5076322;28;19943;-59
2022/01/08 03:08:52;;;;;;;;;;;19.30;37.10;;;;;;5076361;28;19959;-59
2022/01/08 03:11:18;;;;;;;;;;;19.30;37.10;;;;;;5076554;28;19962;-58
2022/01/08 03:13:43;;;;;;;;;;;19.30;37.10;;;;;;5076169;28;19912;-58
2022/01/08 03:16:09;;;;;;;;;;;19.30;37.10;;;;;;5076074;28;19915;-59
2022/01/08 03:18:36;;;;;;;;;;;19.30;37.10;;;;;;5074892;28;19939;-59
2022/01/08 03:21:12;;;;;;;;;;;19.30;37.10;;;;;;5075239;28;19916;-58
2022/01/08 03:23:45;;;;;;;;;;;19.30;37.10;;;;;;5076185;28;19909;-58
2022/01/08 03:26:11;;;;;;;;;;;19.30;37.10;;;;;;5076311;28;19999;-59
2022/01/08 03:28:36;;;;;;;;;;;19.30;37.10;;;;;;5075951;28;20042;-58
2022/01/08 03:31:02;;;;;;;;;;;19.30;37.10;;;;;;5076198;28;20276;-59
2022/01/08 03:33:27;;;;;;;;;;;19.20;37.10;;;;;;5075844;28;20015;-58
2022/01/08 03:35:53;;;;;;;;;;;19.20;37.20;;;;;;5075823;28;19915;-58
2022/01/08 03:38:18;;;;;;;;;;;19.20;37.10;;;;;;5075853;28;19916;-59
2022/01/08 03:40:44;;;;;;;;;;;19.20;37.10;;;;;;5075785;28;19920;-59
2022/01/08 03:43:09;;;;;;;;;;;19.20;37.10;;;;;;5075894;28;19934;-59
2022/01/08 03:45:35;;;;;;;;;;;19.20;37.10;;;;;;5075757;28;19935;-59
2022/01/08 03:50:32;;;;;;;;;;;19.20;37.10;;;;;;5075701;28;19951;-59
2022/01/08 03:52:57;;;;;;;;;;;19.20;37.10;;;;;;5075594;28;20434;-59
2022/01/08 03:55:22;;;;;;;;;;;19.20;37.10;;;;;;5075473;28;19912;-59
2022/01/08 03:57:48;;;;;;;;;;;19.20;37.10;;;;;;5075522;28;19999;-58
2022/01/08 04:00:14;;;;;;;;;;;19.20;37.10;;;;;;5075484;28;19935;-59
2022/01/08 04:02:39;;;;;;;;;;;19.20;37.10;;;;;;5075609;28;19909;-59
2022/01/08 04:05:05;;;;;;;;;;;19.20;37.00;;;;;;5074029;28;19916;-58
2022/01/08 04:07:30;;;;;;;;;;;19.20;37.00;;;;;;5075307;28;19908;-58
2022/01/08 04:09:56;;;;;;;;;;;19.20;37.10;;;;;;5075280;28;19962;-58
2022/01/08 04:12:31;;;;;;;;;;;19.20;37.00;;;;;;5075107;28;19908;-58
2022/01/08 04:15:06;;;;;;;;;;;19.20;37.10;;;;;;5075102;28;19917;-59
2022/01/08 04:17:31;;;;;;;;;;;19.10;37.10;;;;;;5075125;28;19909;-59
2022/01/08 04:19:57;;;;;;;;;;;19.10;37.10;;;;;;5075033;28;19915;-58
2022/01/08 04:22:24;;;;;;;;;;;19.20;37.10;;;;;;5074983;28;19961;-59
2022/01/08 04:24:50;;;;;;;;;;;19.10;37.10;;;;;;5074874;28;19908;-59
2022/01/08 04:27:15;;;;;;;;;;;19.10;37.10;;;;;;5074882;28;19915;-58
2022/01/08 04:29:41;;;;;;;;;;;19.10;37.10;;;;;;5075137;28;19919;-58
2022/01/08 04:32:06;;;;;;;;;;;19.10;37.10;;;;;;5075007;28;19955;-59
2022/01/08 04:34:32;;;;;;;;;;;19.10;37.10;;;;;;5074648;28;20032;-59
2022/01/08 04:36:57;;;;;;;;;;;19.10;37.10;;;;;;5074668;28;19915;-58
2022/01/08 04:39:23;;;;;;;;;;;19.10;37.10;;;;;;5074582;28;19908;-58
2022/01/08 04:41:48;;;;;;;;;;;19.10;37.10;;;;;;5074620;28;19915;-58
2022/01/08 04:44:14;;;;;;;;;;;19.00;37.00;;;;;;5074487;28;20341;-58
2022/01/08 04:46:41;;;;;;;;;;;19.10;37.10;;;;;;5074482;28;19947;-59
2022/01/08 04:49:07;;;;;;;;;;;19.00;37.10;;;;;;5074597;28;20420;-58
2022/01/08 04:51:32;;;;;;;;;;;19.00;37.10;;;;;;5074256;28;19951;-58
2022/01/08 04:53:57;;;;;;;;;;;19.00;37.10;;;;;;5073903;28;20011;-58
2022/01/08 04:56:23;;;;;;;;;;;19.00;37.10;;;;;;5074323;28;19952;-59
2022/01/08 04:58:48;;;;;;;;;;;19.00;37.10;;;;;;5073909;28;20010;-58
2022/01/08 05:01:15;;;;;;;;;;;19.00;37.10;;;;;;5073996;28;19937;-57
2022/01/08 05:03:41;;;;;;;;;;;19.00;37.10;;;;;;5073976;28;19909;-59
2022/01/08 05:06:06;;;;;;;;;;;19.00;37.10;;;;;;5073860;28;19908;-59
2022/01/08 05:08:31;;;;;;;;;;;19.00;37.10;;;;;;5073772;28;19908;-59
2022/01/08 05:10:57;;;;;;;;;;;19.00;37.10;;;;;;5074092;28;20352;-59
2022/01/08 05:13:22;;;;;;;;;;;19.00;37.00;;;;;;5073846;28;19966;-58
2022/01/08 05:15:48;;;;;;;;;;;19.00;37.10;;;;;;5073637;28;19912;-58
2022/01/08 05:18:13;;;;;;;;;;;19.00;37.00;;;;;;5073792;28;19955;-59
2022/01/08 05:20:41;;;;;;;;;;;19.00;37.00;;;;;;5073603;28;19909;-58
2022/01/08 05:23:07;;;;;;;;;;;19.10;37.00;;;;;;5073599;28;19935;-59
2022/01/08 05:25:33;;;;;;;;;;;19.10;36.90;;;;;;5073774;28;19909;-58
2022/01/08 05:27:59;;;;;;;;;;;19.10;36.90;;;;;;5055840;28;20352;-59
2022/01/08 05:30:25;;;;;;;;;;;19.10;36.80;;;;;;5073696;28;19912;-59
2022/01/08 05:32:51;;;;;;;;;;;19.10;36.80;;;;;;5073845;28;19916;-59
2022/01/08 05:35:16;;;;;;;;;;;19.10;36.70;;;;;;5073645;28;20360;-58
2022/01/08 05:37:42;;;;;;;;;;;19.20;36.70;;;;;;5073609;28;19909;-59
2022/01/08 05:40:08;;;;;;;;;;;19.20;36.70;;;;;;5073616;28;19915;-58
2022/01/08 05:42:33;;;;;;;;;;;19.20;36.70;;;;;;5073321;28;20360;-58
2022/01/08 05:44:59;;;;;;;;;;;19.30;36.70;;;;;;5073593;28;20288;-58
2022/01/08 05:47:28;;;;;;;;;;;19.20;36.70;;;;;;5073509;28;19935;-59
2022/01/08 05:49:53;;;;;;;;;;;19.30;36.60;;;;;;5073747;28;19909;-59
2022/01/08 05:52:19;;;;;;;;;;;19.30;36.60;;;;;;5073380;28;20011;-59
2022/01/08 05:54:44;;;;;;;;;;;19.30;36.60;;;;;;5073415;28;19920;-58
2022/01/08 05:57:10;;;;;;;;;;;19.30;36.50;;;;;;5073395;28;19909;-59
2022/01/08 05:59:35;;;;;;;;;;;19.40;36.60;;;;;;5073130;28;19926;-58
2022/01/08 06:02:01;;;;;;;;;;;19.40;36.50;;;;;;5073356;28;20379;-59
2022/01/08 06:04:26;;;;;;;;;;;19.40;36.50;;;;;;5073311;28;19908;-58
2022/01/08 06:06:51;;;;;;;;;;;19.50;36.50;;;;;;5073297;28;20330;-59
2022/01/08 06:09:17;;;;;;;;;;;19.40;36.50;;;;;;5073561;28;20249;-58
2022/01/08 06:11:42;;;;;;;;;;;19.50;36.40;;;;;;5073429;28;19908;-59
2022/01/08 06:14:08;;;;;;;;;;;19.50;36.50;;;;;;5073198;28;19917;-59
2022/01/08 06:16:35;;;;;;;;;;;19.50;36.40;;;;;;5073219;28;20375;-59
2022/01/08 06:19:11;;;;;;;;;;;19.50;36.40;;;;;;5073508;28;19912;-59
2022/01/08 06:21:37;;;;;;;;;;;19.50;36.40;;;;;;5073410;28;19909;-58
2022/01/08 06:24:03;;;;;;;;;;;19.50;36.40;;;;;;5073438;28;19919;-59
2022/01/08 06:26:28;;;;;;;;;;;19.50;36.40;;;;;;5073137;28;19912;-59
2022/01/08 06:28:54;;;;;;;;;;;19.50;36.40;;;;;;5073230;28;19915;-59
2022/01/08 06:31:20;;;;;;;;;;;19.50;36.40;;;;;;5073103;28;19908;-58
2022/01/08 06:33:46;;;;;;;;;;;19.50;36.40;;;;;;5072974;28;19917;-58
2022/01/08 06:36:11;;;;;;;;;;;19.60;36.40;;;;;;5073078;28;19909;-58
2022/01/08 06:38:37;;;;;;;;;;;19.60;36.30;;;;;;5072976;28;19909;-59
2022/01/08 06:41:02;;;;;;;;;;;19.60;36.20;;;;;;5073002;28;20319;-58
2022/01/08 06:43:28;;;;;;;;;;;19.60;36.30;;;;;;5072998;28;19908;-59
2022/01/08 06:45:53;;;;;;;;;;;19.60;36.30;;;;;;5073187;28;20015;-58
2022/01/08 06:48:19;;;;;;;;;;;19.60;36.30;;;;;;5072874;28;19908;-59
2022/01/08 06:50:44;;;;;;;;;;;19.60;36.20;;;;;;5072812;28;19977;-59
2022/01/08 06:53:09;;;;;;;;;;;19.70;36.20;;;;;;5072773;28;20015;-58
2022/01/08 06:55:35;;;;;;;;;;;19.70;36.20;;;;;;5074740;28;19983;-59
2022/01/08 06:58:01;;;;;;;;;;;19.70;36.20;;;;;;5075145;28;19917;-58
2022/01/08 07:00:26;;;;;;;;;;;19.70;36.30;;;;;;5076572;28;19938;-58
2022/01/08 07:02:52;;;;;;;;;;;19.70;36.20;;;;;;5075196;28;20349;-58
2022/01/08 07:05:17;;;;;;;;;;;19.70;36.30;;;;;;5076377;28;19915;-58
2022/01/08 07:07:43;;;;;;;;;;;19.70;36.20;;;;;;5076412;28;19944;-59
2022/01/08 07:10:08;;;;;;;;;;;19.70;36.10;;;;;;5076417;28;20432;-58
2022/01/08 07:12:35;;;;;;;;;;;19.70;36.20;;;;;;5076285;28;20280;-59
2022/01/08 07:15:00;;;;;;;;;;;19.70;36.10;;;;;;5076226;28;19917;-58
2022/01/08 07:17:26;;;;;;;;;;;19.80;36.30;;;;;;5074928;28;19916;-59
2022/01/08 07:19:51;;;;;;;;;;;19.70;36.30;;;;;;5076109;28;19927;-59
2022/01/08 07:22:17;;;;;;;;;;;19.80;36.20;;;;;;5076417;28;19939;-59
2022/01/08 07:24:42;;;;;;;;;;;19.80;36.20;;;;;;5075980;28;19968;-57
2022/01/08 07:27:08;;;;;;;;;;;19.80;36.20;;;;;;5075757;28;19953;-58
2022/01/08 07:29:33;;;;;;;;;;;19.80;36.20;;;;;;5075720;28;19908;-59
2022/01/08 07:31:58;;;;;;;;;;;19.80;36.20;;;;;;5075730;28;19916;-58
2022/01/08 07:34:24;;;;;;;;;;;19.80;36.20;;;;;;5075616;28;19927;-58
2022/01/08 07:36:49;;;;;;;;;;;19.80;36.10;;;;;;5075594;28;19908;-58
2022/01/08 07:39:15;;;;;;;;;;;19.80;36.20;;;;;;5075785;28;20408;-59
2022/01/08 07:41:40;;;;;;;;;;;19.80;36.10;;;;;;5075559;28;20319;-59
2022/01/08 07:44:06;;;;;;;;;;;19.80;36.10;;;;;;5075472;28;19909;-59
2022/01/08 07:46:31;;;;;;;;;;;19.80;36.10;;;;;;5075333;28;19908;-58
2022/01/08 07:48:56;;;;;;;;;;;19.80;36.10;;;;;;5075310;28;19909;-58
2022/01/08 07:51:22;;;;;;;;;;;19.90;36.10;;;;;;5075556;28;19915;-59
2022/01/08 07:53:47;;;;;;;;;;;19.90;36.10;;;;;;5075254;28;19917;-58
2022/01/08 07:56:13;;;;;;;;;;;19.90;36.00;;;;;;5075382;28;19951;-59
2022/01/08 07:58:38;;;;;;;;;;;19.90;36.10;;;;;;5075056;28;20403;-59
2022/01/08 08:01:04;;;;;;;;;;;19.90;36.10;;;;;;5075664;28;19951;-58
2022/01/08 08:03:29;;;;;;;;;;;19.90;36.10;;;;;;5075312;28;19916;-59
2022/01/08 08:05:55;;;;;;;;;;;19.90;36.10;;;;;;5075179;28;19920;-59
2022/01/08 08:08:21;;;;;;;;;;;20.00;36.10;;;;;;5075302;28;20397;-58
2022/01/08 08:10:48;;;;;;;;;;;19.90;36.10;;;;;;5075165;28;19909;-59
2022/01/08 08:13:14;;;;;;;;;;;20.00;36.10;;;;;;5075310;28;19997;-58
2022/01/08 08:15:40;;;;;;;;;;;20.00;36.00;;;;;;5075061;28;19917;-60
2022/01/08 08:18:05;;;;;;;;;;;20.00;36.10;;;;;;5074975;28;19952;-59
2022/01/08 08:20:30;;;;;;;;;;;20.00;36.10;;;;;;5075217;28;19908;-59
2022/01/08 08:22:56;;;;;;;;;;;20.00;36.00;;;;;;5074909;28;19947;-59
2022/01/08 08:25:21;;;;;;;;;;;20.00;36.10;;;;;;5074948;28;19909;-59
2022/01/08 08:27:47;;;;;;;;;;;20.00;36.00;;;;;;5075130;28;19912;-60
2022/01/08 08:30:12;;;;;;;;;;;20.00;36.00;;;;;;5074808;28;20352;-59
2022/01/08 08:32:38;;;;;;;;;;;20.00;36.10;;;;;;5074936;28;19909;-59
2022/01/08 08:35:04;;;;;;;;;;;20.00;36.00;;;;;;5074842;28;20280;-59
2022/01/08 08:37:29;;;;;;;;;;;20.00;36.00;;;;;;5074613;28;19909;-59
2022/01/08 08:39:55;;;;;;;;;;;20.00;36.00;;;;;;5074542;28;19982;-61
2022/01/08 08:42:20;;;;;;;;;;;20.10;36.10;;;;;;5074623;28;20367;-59
2022/01/08 08:44:45;;;;;;;;;;;20.10;36.00;;;;;;5074439;28;20271;-59
2022/01/08 08:47:11;;;;;;;;;;;20.10;36.00;;;;;;5074415;28;19908;-59
2022/01/08 08:49:37;;;;;;;;;;;20.10;36.00;;;;;;5074647;28;20344;-59
2022/01/08 08:52:02;;;;;;;;;;;20.10;36.00;;;;;;5074265;28;20020;-58
2022/01/08 08:54:28;;;;;;;;;;;20.10;36.00;;;;;;5074114;28;19917;-58
2022/01/08 08:56:53;;;;;;;;;;;20.10;36.00;;;;;;5074196;28;20079;-58
2022/01/08 08:59:19;;;;;;;;;;;20.10;36.00;;;;;;5073931;28;20291;-58
2022/01/08 09:01:44;;;;;;;;;;;20.10;36.00;;;;;;5074024;28;19924;-59
2022/01/08 09:04:10;;;;;;;;;;;20.10;36.00;;;;;;5074324;28;20302;-62
2022/01/08 09:06:36;;;;;;;;;;;20.10;35.90;;;;;;5074235;28;20406;-59
2022/01/08 09:09:01;;;;;;;;;;;20.10;36.00;;;;;;5074003;28;20368;-59
2022/01/08 09:11:27;;;;;;;;;;;20.10;36.00;;;;;;5073966;28;19938;-59
2022/01/08 09:13:53;;;;;;;;;;;20.10;36.00;;;;;;5073676;28;19923;-58
2022/01/08 09:16:19;;;;;;;;;;;20.10;35.90;;;;;;5073729;28;20284;-59
2022/01/08 09:18:45;;;;;;;;;;;20.10;36.00;;;;;;5072146;28;19915;-59
2022/01/08 09:21:11;;;;;;;;;;;20.10;36.00;;;;;;5072549;28;19954;-59
2022/01/08 09:23:37;;;;;;;;;;;20.20;36.00;;;;;;5073536;28;19916;-58
2022/01/08 09:26:03;;;;;;;;;;;20.20;36.00;;;;;;5073705;28;19908;-59
2022/01/08 09:28:30;;;;;;;;;;;20.20;36.00;;;;;;5073488;28;19908;-58
2022/01/08 09:30:56;;;;;;;;;;;20.20;36.00;;;;;;5073458;28;20046;-58
2022/01/08 09:33:21;;;;;;;;;;;20.20;35.90;;;;;;5073523;28;20352;-58
2022/01/08 09:35:47;;;;;;;;;;;20.20;36.00;;;;;;5073512;28;19920;-59
2022/01/08 09:38:13;;;;;;;;;;;20.20;36.00;;;;;;5073658;28;19909;-59
2022/01/08 09:40:38;;;;;;;;;;;20.20;36.00;;;;;;5073434;28;19915;-59
2022/01/08 09:43:04;;;;;;;;;;;20.20;36.00;;;;;;5073601;28;19908;-58
2022/01/08 09:45:30;;;;;;;;;;;20.20;36.00;;;;;;5073393;28;20283;-59
2022/01/08 09:47:55;;;;;;;;;;;20.20;36.00;;;;;;5073410;28;20237;-58
2022/01/08 09:50:21;;;;;;;;;;;20.20;36.00;;;;;;5073496;28;19908;-59
2022/01/08 09:52:46;;;;;;;;;;;20.20;35.90;;;;;;5073174;28;20007;-58
2022/01/08 09:55:12;;;;;;;;;;;20.20;36.00;;;;;;5073019;28;19916;-59
2022/01/08 09:57:37;;;;;;;;;;;20.20;35.90;;;;;;5073235;28;19908;-59
2022/01/08 10:00:10;;;;;;;;;;;20.20;36.00;;;;;;5071618;28;19956;-58
2022/01/08 10:02:35;;;;;;;;;;;20.20;36.00;;;;;;5073330;28;19908;-58
2022/01/08 10:05:08;;;;;;;;;;;20.20;35.90;;;;;;5073084;28;19915;-59
2022/01/08 10:07:34;;;;;;;;;;;20.20;36.00;;;;;;5073276;28;19909;-58
2022/01/08 10:10:02;;;;;;;;;;;20.30;36.00;;;;;;5073318;28;20014;-59
2022/01/08 10:12:39;;;;;;;;;;;20.20;36.00;;;;;;5072930;28;19935;-58
2022/01/08 10:17:51;;;;;;;;;;;20.20;36.00;;;;;;5041844;28;19915;-59
2022/01/08 10:20:27;;;;;;;;;;;20.30;36.00;;;;;;5073303;28;19909;-59
2022/01/08 10:23:12;;;;;;;;;;;20.30;36.00;;;;;;5073067;28;19951;-59
2022/01/08 10:25:42;;;;;;;;;;;20.30;36.00;;;;;;5072380;28;19912;-59
2022/01/08 10:28:08;;;;;;;;;;;20.30;36.00;;;;;;5038665;28;20268;-59
2022/01/08 10:30:33;;;;;;;;;;;20.30;36.00;;;;;;5076772;28;19915;-59
2022/01/08 10:33:00;;;;;;;;;;;20.30;36.00;;;;;;5076766;28;20327;-59
2022/01/08 10:35:44;;;;;;;;;;;20.30;36.00;;;;;;5076698;28;20341;-58
2022/01/08 10:38:09;;;;;;;;;;;20.30;36.00;;;;;;5077078;28;19908;-59
2022/01/08 10:40:35;;;;;;;;;;;20.30;36.00;;;;;;5076669;28;19919;-59
2022/01/08 10:43:00;;;;;;;;;;;20.30;36.00;;;;;;5076763;28;19908;-59
2022/01/08 10:45:32;;;;;;;;;;;20.30;36.00;;;;;;5076817;28;19915;-59
2022/01/08 10:48:04;;;;;;;;;;;20.30;36.00;;;;;;5076645;28;19909;-58
2022/01/08 10:50:30;;;;;;;;;;;20.40;36.00;;;;;;5076686;28;20402;-58
2022/01/08 10:52:57;;;;;;;;;;;20.30;36.00;;;;;;5076574;28;19912;-59
2022/01/08 10:55:30;;;;;;;;;;;20.30;36.00;;;;;;5076425;28;19912;-58
2022/01/08 10:57:55;;;;;;;;;;;20.30;36.00;;;;;;5076021;28;19913;-59
2022/01/08 11:00:28;;;;;;;;;;;20.40;36.00;;;;;;5076304;28;19920;-58
2022/01/08 11:02:54;;;;;;;;;;;20.30;36.00;;;;;;5076599;28;19986;-59
2022/01/08 11:05:19;;;;;;;;;;;20.30;35.90;;;;;;5076230;28;19913;-59
2022/01/08 11:07:47;;;;;;;;;;;20.30;36.00;;;;;;5075835;28;21652;-59
2022/01/08 11:10:19;;;;;;;;;;;20.40;36.00;;;;;;5076256;28;19908;-58
2022/01/08 11:12:46;;;;;;;;;;;20.40;36.00;;;;;;5076044;28;19909;-59
2022/01/08 11:17:41;;;;;;;;;;;20.40;35.90;;;;;;5076029;28;19909;-59
2022/01/08 11:20:11;;;;;;;;;;;20.40;35.90;;;;;;5075813;28;19915;-59
2022/01/08 11:22:38;;;;;;;;;;;20.40;35.90;;;;;;5075808;28;19908;-59
2022/01/08 11:25:12;;;;;;;;;;;20.40;35.90;;;;;;5076288;28;19912;-59
2022/01/08 11:27:40;;;;;;;;;;;20.40;35.90;;;;;;5075866;28;19931;-59
2022/01/08 11:30:08;;;;;;;;;;;20.50;35.90;;;;;;5076189;28;19912;-59
2022/01/08 11:32:34;;;;;;;;;;;20.50;35.90;;;;;;5075938;28;20248;-58
2022/01/08 11:35:00;;;;;;;;;;;20.50;35.90;;;;;;5075702;28;19916;-58
2022/01/08 11:37:25;;;;;;;;;;;20.50;35.90;;;;;;5057811;28;20385;-59
2022/01/08 11:39:52;;;;;;;;;;;20.50;35.90;;;;;;5075648;28;20379;-59
2022/01/08 11:42:22;;;;;;;;;;;20.50;35.90;;;;;;5075107;28;20248;-58
2022/01/08 11:44:49;;;;;;;;;;;20.50;35.90;;;;;;5075784;28;19913;-58
2022/01/08 11:47:15;;;;;;;;;;;20.50;35.90;;;;;;5075447;28;19908;-59
2022/01/08 11:49:41;;;;;;;;;;;20.50;35.90;;;;;;5075559;28;19908;-59
2022/01/08 11:52:13;;;;;;;;;;;20.50;35.80;;;;;;5075472;28;20003;-59
2022/01/08 11:54:42;;;;;;;;;;;20.50;35.80;;;;;;5057456;28;20007;-59
2022/01/08 11:57:16;;;;;;;;;;;20.60;35.80;;;;;;5075576;28;19999;-59
2022/01/08 11:59:42;;;;;;;;;;;20.60;35.80;;;;;;5075240;28;19924;-58
2022/01/08 12:02:09;;;;;;;;;;;20.60;35.80;;;;;;5075504;28;19919;-58
2022/01/08 12:04:35;;;;;;;;;;;20.60;35.80;;;;;;5075266;28;19954;-58
2022/01/08 12:07:20;;;;;;;;;;;20.60;35.80;;;;;;5075302;28;19912;-58
2022/01/08 12:09:46;;;;;;;;;;;20.60;35.80;;;;;;5060602;28;19909;-58
2022/01/08 12:12:12;;;;;;;;;;;20.60;35.80;;;;;;5075171;28;19915;-59
2022/01/08 12:14:37;;;;;;;;;;;20.60;35.80;;;;;;5074497;28;20382;-58
2022/01/08 12:17:13;;;;;;;;;;;20.60;35.80;;;;;;5075039;28;20011;-58
2022/01/08 12:19:39;;;;;;;;;;;20.60;35.80;;;;;;5073666;28;20419;-59
2022/01/08 12:22:20;;;;;;;;;;;20.60;35.90;;;;;;5074938;28;19953;-58
2022/01/08 12:25:00;;;;;;;;;;;20.60;35.80;;;;;;5075248;28;19912;-58
2022/01/08 12:27:34;;;;;;;;;;;20.60;35.80;;;;;;5075181;28;19920;-58
2022/01/08 12:30:21;;;;;;;;;;;20.60;35.80;;;;;;5074985;28;19917;-58
2022/01/08 12:32:52;;;;;;;;;;;20.70;35.80;;;;;;5076679;28;19908;-58
2022/01/08 12:35:19;;;;;;;;;;;20.70;35.80;;;;;;5074548;28;19962;-58
2022/01/08 12:37:49;;;;;;;;;;;20.60;35.80;;;;;;5074782;28;19916;-59
2022/01/08 12:40:33;;;;;;;;;;;20.70;35.90;;;;;;5074600;28;19930;-59
2022/01/08 12:42:58;;;;;;;;;;;20.70;35.80;;;;;;5074743;28;19908;-59
2022/01/08 12:45:31;;;;;;;;;;;20.70;35.80;;;;;;5074337;28;20387;-59
2022/01/08 12:48:00;;;;;;;;;;;20.70;35.80;;;;;;5074574;28;19954;-59
2022/01/08 12:50:32;;;;;;;;;;;20.70;35.80;;;;;;5074237;28;19912;-59
2022/01/08 12:53:07;;;;;;;;;;;20.70;35.70;;;;;;5055298;28;20257;-59
2022/01/08 12:55:32;;;;;;;;;;;20.70;35.80;;;;;;5074342;28;19922;-59
2022/01/08 12:57:58;;;;;;;;;;;20.70;35.80;;;;;;5074119;28;19916;-58
2022/01/08 13:00:24;;;;;;;;;;;20.70;35.70;;;;;;5074222;28;19940;-59
2022/01/08 13:02:50;;;;;;;;;;;20.70;35.80;;;;;;5072706;28;20384;-59
2022/01/08 13:05:15;;;;;;;;;;;20.70;35.70;;;;;;5074011;28;19919;-59
2022/01/08 13:07:51;;;;;;;;;;;20.70;35.80;;;;;;5073765;28;19912;-58
2022/01/08 13:10:17;;;;;;;;;;;20.70;35.80;;;;;;5073609;28;19908;-58
2022/01/08 13:12:42;;;;;;;;;;;20.70;35.70;;;;;;5073519;28;20279;-59
2022/01/08 13:15:08;;;;;;;;;;;20.70;35.80;;;;;;5073496;28;20077;-58
2022/01/08 13:17:34;;;;;;;;;;;20.80;35.70;;;;;;5073455;28;19915;-59
2022/01/08 13:20:03;;;;;;;;;;;20.70;35.70;;;;;;5073637;28;20252;-58
2022/01/08 13:22:28;;;;;;;;;;;20.70;35.70;;;;;;5073506;28;19974;-59
2022/01/08 13:24:54;;;;;;;;;;;20.80;35.70;;;;;;5073451;28;20348;-59
2022/01/08 13:27:20;;;;;;;;;;;20.70;35.80;;;;;;5073482;28;19931;-59
2022/01/08 13:29:46;;;;;;;;;;;20.70;35.80;;;;;;5073387;28;19962;-59
2022/01/08 13:32:16;;;;;;;;;;;20.70;35.70;;;;;;5073332;28;19912;-59
2022/01/08 13:34:46;;;;;;;;;;;20.70;35.70;;;;;;5072953;28;20344;-58
2022/01/08 13:37:18;;;;;;;;;;;20.80;35.70;;;;;;5073526;28;19908;-59
2022/01/08 13:39:44;;;;;;;;;;;20.80;35.60;;;;;;5073458;28;19908;-59
2022/01/08 13:42:11;;;;;;;;;;;20.70;35.70;;;;;;5055202;28;20391;-58
2022/01/08 13:44:37;;;;;;;;;;;20.80;35.70;;;;;;5073194;28;20283;-59
2022/01/08 13:47:03;;;;;;;;;;;20.80;35.70;;;;;;5072941;28;19912;-58
2022/01/08 13:49:29;;;;;;;;;;;20.80;35.80;;;;;;5072948;28;19909;-58
2022/01/08 13:51:56;;;;;;;;;;;20.80;35.70;;;;;;5073432;28;19908;-58
2022/01/08 13:54:32;;;;;;;;;;;20.80;35.60;;;;;;5073074;28;19925;-59
2022/01/08 13:57:09;;;;;;;;;;;20.80;35.70;;;;;;5073140;28;19909;-59
2022/01/08 13:59:34;;;;;;;;;;;20.70;35.70;;;;;;5071694;28;20390;-59
2022/01/08 14:02:02;;;;;;;;;;;20.80;35.70;;;;;;5073067;28;19912;-59
2022/01/08 14:04:29;;;;;;;;;;;20.80;35.70;;;;;;5072760;28;19996;-59
2022/01/08 14:06:57;;;;;;;;;;;20.80;35.60;;;;;;5073261;28;19908;-58
2022/01/08 14:09:23;;;;;;;;;;;20.80;35.60;;;;;;5073120;28;19924;-59
2022/01/08 14:11:49;;;;;;;;;;;20.80;35.70;;;;;;5072801;28;19908;-59
2022/01/08 14:14:19;;;;;;;;;;;20.80;35.70;;;;;;5072971;28;20026;-59
2022/01/08 14:16:45;;;;;;;;;;;20.80;35.70;;;;;;5073003;28;19962;-59
2022/01/08 14:19:12;;;;;;;;;;;20.80;35.60;;;;;;5073285;28;19913;-58
2022/01/08 14:21:39;;;;;;;;;;;20.80;35.60;;;;;;5073091;28;19916;-59
2022/01/08 14:24:15;;;;;;;;;;;20.80;35.70;;;;;;5073090;28;19910;-58
2022/01/08 14:26:40;;;;;;;;;;;20.80;35.70;;;;;;5073056;28;20276;-58
2022/01/08 14:29:09;;;;;;;;;;;20.70;35.70;;;;;;5073331;28;19920;-59
2022/01/08 14:31:36;;;;;;;;;;;20.80;35.70;;;;;;5072912;28;20288;-58
2022/01/08 14:34:04;;;;;;;;;;;20.70;35.60;;;;;;5072774;28;20441;-59
2022/01/08 14:36:39;;;;;;;;;;;20.80;35.70;;;;;;5072907;28;19923;-58
2022/01/08 14:39:04;;;;;;;;;;;20.70;35.70;;;;;;5072958;28;19909;-58